Time;durP1;ratioP1;P1;durP2;ratioP2;P2;SDS_P1;SDS_P2;PMS_P1;PMS_P2;Temp;Humidity;BMP_temperature;BMP_pressure;BME280_temperature;BME280_humidity;BME280_pressure;Samples;Min_cycle;Max_cycle;Signal;HPM_P1;HPM_P2
2022/08/24 00:02:27;;;;;;;9.18;8.25;;;23.40;66.20;;;;;;5073565;28;20067;-71
2022/08/24 00:04:54;;;;;;;11.60;9.60;;;23.30;66.10;;;;;;5073324;28;20056;-72
2022/08/24 00:07:20;;;;;;;11.80;9.00;;;23.30;66.70;;;;;;5073526;28;20056;-72
2022/08/24 00:09:47;;;;;;;9.45;8.43;;;23.30;66.20;;;;;;5073513;28;20057;-71
2022/08/24 00:12:14;;;;;;;10.68;9.63;;;23.30;66.20;;;;;;5073162;28;20052;-72
2022/08/24 00:14:41;;;;;;;9.20;8.30;;;23.30;66.20;;;;;;5059569;28;20151;-71
2022/08/24 00:17:08;;;;;;;10.77;9.38;;;23.30;66.20;;;;;;5053412;28;20059;-74
2022/08/24 00:19:36;;;;;;;10.95;9.82;;;23.30;66.20;;;;;;5053298;28;20561;-71
2022/08/24 00:22:03;;;;;;;10.25;9.32;;;23.30;66.20;;;;;;5052751;28;20049;-72
2022/08/24 00:24:29;;;;;;;11.00;9.88;;;23.30;66.20;;;;;;5054253;28;20095;-71
2022/08/24 00:26:56;;;;;;;10.50;9.40;;;23.30;66.20;;;;;;5053097;28;20528;-72
2022/08/24 00:29:23;;;;;;;11.95;10.40;;;23.30;66.20;;;;;;5073079;28;20060;-71
2022/08/24 00:31:50;;;;;;;12.45;9.95;;;23.30;66.20;;;;;;5072972;28;20133;-71
2022/08/24 00:34:17;;;;;;;9.77;8.63;;;23.30;66.20;;;;;;5074079;28;20127;-72
2022/08/24 00:36:45;;;;;;;10.85;9.75;;;23.30;66.20;;;;;;5073061;28;20056;-71
2022/08/24 00:39:12;;;;;;;11.80;10.70;;;23.30;66.20;;;;;;5072609;28;20075;-71
2022/08/24 00:41:40;;;;;;;10.88;9.77;;;23.30;66.20;;;;;;5072197;28;20147;-71
2022/08/24 00:44:07;;;;;;;10.90;9.77;;;23.30;66.20;;;;;;5032659;28;20056;-71
2022/08/24 00:46:40;;;;;;;11.07;10.02;;;23.20;66.20;;;;;;5032949;28;20060;-72
2022/08/24 00:49:11;;;;;;;11.82;10.63;;;23.30;66.20;;;;;;5033083;28;20065;-72
2022/08/24 00:51:41;;;;;;;11.85;10.75;;;23.20;66.20;;;;;;5032455;28;20398;-71
2022/08/24 00:54:11;;;;;;;11.85;10.65;;;23.20;66.20;;;;;;5032766;28;20140;-71
2022/08/24 00:56:40;;;;;;;10.85;9.75;;;23.30;66.20;;;;;;5050068;28;20139;-71
2022/08/24 00:59:10;;;;;;;10.35;9.27;;;23.20;66.20;;;;;;5072652;28;20066;-72
2022/08/24 01:01:36;;;;;;;10.48;9.40;;;23.20;66.20;;;;;;5073239;28;20469;-71
2022/08/24 01:04:04;;;;;;;11.23;9.63;;;23.20;66.20;;;;;;5071872;28;20057;-74
2022/08/24 01:06:32;;;;;;;12.43;11.20;;;23.20;66.20;;;;;;5072111;28;20080;-71
2022/08/24 01:08:59;;;;;;;12.27;11.07;;;23.20;66.20;;;;;;5072184;28;20080;-71
2022/08/24 01:11:28;;;;;;;11.93;10.60;;;23.20;66.20;;;;;;5071988;28;20052;-72
2022/08/24 01:13:54;;;;;;;12.60;11.40;;;23.10;66.10;;;;;;5070554;28;20056;-71
2022/08/24 01:19:02;;;;;;;13.63;12.32;;;23.20;66.20;;;;;;5070912;28;20063;-72
2022/08/24 01:21:34;;;;;;;12.90;11.63;;;23.10;66.70;;;;;;5071634;28;20132;-73
2022/08/24 01:24:03;;;;;;;13.40;12.15;;;23.20;66.20;;;;;;5072170;28;20102;-72
2022/08/24 01:26:32;;;;;;;13.07;11.77;;;23.10;66.20;;;;;;5071495;28;20049;-74
2022/08/24 01:29:01;;;;;;;13.90;12.60;;;23.10;66.20;;;;;;5031945;28;20056;-72
2022/08/24 01:31:28;;;;;;;14.05;12.75;;;23.10;66.20;;;;;;5031557;28;20128;-74
2022/08/24 01:33:55;;;;;;;12.55;11.35;;;23.20;66.30;;;;;;5032782;28;20045;-71
2022/08/24 01:36:25;;;;;;;13.48;12.18;;;23.10;66.20;;;;;;5032017;28;20548;-71
2022/08/24 01:38:52;;;;;;;12.40;11.27;;;23.10;66.20;;;;;;5032014;28;20053;-72
2022/08/24 01:41:20;;;;;;;12.95;11.75;;;23.10;66.20;;;;;;5050005;28;20162;-72
2022/08/24 01:43:47;;;;;;;12.55;11.35;;;23.10;66.20;;;;;;5071413;28;20547;-71
2022/08/24 01:46:14;;;;;;;13.48;12.15;;;23.20;66.30;;;;;;5071724;28;20132;-72
2022/08/24 01:48:41;;;;;;;13.60;12.30;;;25.20;67.30;;;;;;5071571;28;20052;-72
2022/08/24 01:51:08;;;;;;;12.85;11.55;;;23.10;66.70;;;;;;5071432;28;20057;-71
2022/08/24 01:53:35;;;;;;;12.90;11.75;;;23.10;66.20;;;;;;5071348;28;20096;-73
2022/08/24 01:56:02;;;;;;;12.88;11.60;;;23.10;66.20;;;;;;5063783;28;20052;-71
2022/08/24 01:58:30;;;;;;;13.48;12.18;;;23.10;66.20;;;;;;5051397;28;20067;-72
2022/08/24 02:00:57;;;;;;;13.23;11.50;;;23.10;66.20;;;;;;5051134;28;20132;-72
2022/08/24 02:03:24;;;;;;;14.57;13.20;;;23.10;66.20;;;;;;5050802;28;20140;-71
2022/08/24 02:05:51;;;;;;;13.27;11.98;;;23.00;66.10;;;;;;5051421;28;20053;-71
2022/08/24 02:08:17;;;;;;;13.48;12.13;;;23.10;66.10;;;;;;5050708;28;20056;-72
2022/08/24 02:10:44;;;;;;;13.48;12.20;;;23.10;66.10;;;;;;5051339;28;20413;-72
2022/08/24 02:13:11;;;;;;;14.05;12.57;;;23.10;66.10;;;;;;5051004;28;20050;-71
2022/08/24 02:15:39;;;;;;;13.18;11.95;;;23.00;66.10;;;;;;5050957;28;20059;-72
2022/08/24 02:18:06;;;;;;;12.55;11.32;;;23.00;66.10;;;;;;5051115;28;20053;-72
2022/08/24 02:20:33;;;;;;;12.95;11.38;;;23.00;66.00;;;;;;5051903;28;20055;-71
2022/08/24 02:23:00;;;;;;;12.43;11.13;;;23.00;66.00;;;;;;5051050;28;20053;-74
2022/08/24 02:25:29;;;;;;;11.57;10.40;;;23.10;66.10;;;;;;5051014;28;20052;-71
2022/08/24 02:27:56;;;;;;;12.55;11.30;;;23.00;66.00;;;;;;5051990;28;20056;-73
2022/08/24 02:30:23;;;;;;;12.00;10.80;;;23.00;66.00;;;;;;5050749;28;20646;-72
2022/08/24 02:32:51;;;;;;;11.73;10.52;;;23.00;66.00;;;;;;5050659;28;20132;-73
2022/08/24 02:35:18;;;;;;;12.73;11.60;;;23.00;66.00;;;;;;5068283;28;20560;-71
2022/08/24 02:37:45;;;;;;;12.60;11.40;;;23.00;66.00;;;;;;5070605;28;20408;-73
2022/08/24 02:40:11;;;;;;;11.73;10.63;;;22.80;67.10;;;;;;5070547;28;20140;-72
2022/08/24 02:42:38;;;;;;;11.55;10.45;;;23.00;66.00;;;;;;5070495;28;20055;-72
2022/08/24 02:45:05;;;;;;;11.98;10.88;;;23.00;65.90;;;;;;5070810;28;20082;-71
2022/08/24 02:47:32;;;;;;;12.07;10.88;;;23.00;66.00;;;;;;5070084;28;20143;-74
2022/08/24 02:50:01;;;;;;;11.05;9.95;;;23.00;65.90;;;;;;5062352;28;20131;-72
2022/08/24 02:52:27;;;;;;;11.45;10.32;;;23.00;65.90;;;;;;5050742;28;20049;-72
2022/08/24 02:54:54;;;;;;;11.63;10.50;;;22.90;65.90;;;;;;5050602;28;20059;-74
2022/08/24 02:57:21;;;;;;;10.80;9.70;;;23.00;65.90;;;;;;5050467;28;20409;-71
2022/08/24 02:59:47;;;;;;;10.05;9.07;;;22.90;65.80;;;;;;5051576;28;20045;-72
2022/08/24 03:02:14;;;;;;;9.68;8.82;;;22.90;65.80;;;;;;5050127;28;20705;-71
2022/08/24 03:04:41;;;;;;;10.90;9.90;;;22.90;65.80;;;;;;5050845;28;20056;-72
2022/08/24 03:07:09;;;;;;;10.63;9.50;;;22.90;65.80;;;;;;5051472;28;20497;-71
2022/08/24 03:09:36;;;;;;;11.48;10.48;;;22.90;65.70;;;;;;5050561;28;20049;-72
2022/08/24 03:12:03;;;;;;;11.23;10.13;;;22.90;65.70;;;;;;5050312;28;20045;-71
2022/08/24 03:14:29;;;;;;;11.18;10.18;;;22.90;65.70;;;;;;5051489;28;20041;-72
2022/08/24 03:16:56;;;;;;;11.38;10.27;;;22.90;65.70;;;;;;5050443;28;20056;-71
2022/08/24 03:19:23;;;;;;;10.95;9.95;;;22.90;65.70;;;;;;5062239;28;20057;-74
2022/08/24 03:21:50;;;;;;;12.38;11.23;;;22.90;65.70;;;;;;5075262;28;20481;-72
2022/08/24 03:24:18;;;;;;;10.68;9.68;;;22.90;65.80;;;;;;5074376;28;20076;-71
2022/08/24 03:26:44;;;;;;;12.38;10.30;;;22.90;65.70;;;;;;5074355;28;20152;-71
2022/08/24 03:29:11;;;;;;;11.23;10.20;;;22.80;65.70;;;;;;5074350;28;20144;-74
2022/08/24 03:31:38;;;;;;;11.10;10.10;;;22.90;65.70;;;;;;5073513;28;20062;-72
2022/08/24 03:34:04;;;;;;;10.85;9.95;;;22.80;65.70;;;;;;5056880;28;20056;-72
2022/08/24 03:36:31;;;;;;;11.10;10.00;;;22.80;65.70;;;;;;5054190;28;20063;-71
2022/08/24 03:38:58;;;;;;;10.65;9.65;;;22.80;65.70;;;;;;5055135;28;20743;-72
2022/08/24 03:41:26;;;;;;;10.93;9.73;;;22.80;65.70;;;;;;5053837;28;20059;-72
2022/08/24 03:43:54;;;;;;;11.60;10.52;;;22.80;65.60;;;;;;5053808;28;20053;-71
2022/08/24 03:46:22;;;;;;;10.50;9.50;;;22.80;65.60;;;;;;5054983;28;20049;-71
2022/08/24 03:48:49;;;;;;;9.50;8.70;;;22.80;65.60;;;;;;5054286;28;20128;-71
2022/08/24 03:51:18;;;;;;;11.05;10.05;;;22.80;65.60;;;;;;5053705;28;20059;-74
2022/08/24 03:53:45;;;;;;;9.63;8.73;;;22.80;65.60;;;;;;5053466;28;20056;-72
2022/08/24 03:56:12;;;;;;;9.73;8.82;;;22.80;65.60;;;;;;5053883;28;20048;-71
2022/08/24 03:58:41;;;;;;;9.93;8.77;;;22.70;65.60;;;;;;5053797;28;20087;-72
2022/08/24 04:01:09;;;;;;;9.93;8.98;;;22.70;65.50;;;;;;5057481;28;20044;-72
2022/08/24 04:03:36;;;;;;;8.38;7.63;;;22.80;65.60;;;;;;5073594;28;20131;-72
2022/08/24 04:06:04;;;;;;;8.70;7.90;;;22.80;65.60;;;;;;5073375;28;20056;-71
2022/08/24 04:08:30;;;;;;;8.98;8.18;;;22.70;65.50;;;;;;5073601;28;20060;-74
2022/08/24 04:10:57;;;;;;;9.35;8.45;;;22.70;65.50;;;;;;5074410;28;20052;-75
2022/08/24 04:13:24;;;;;;;8.18;7.47;;;22.70;65.50;;;;;;5073253;28;20214;-75
2022/08/24 04:15:52;;;;;;;8.90;8.10;;;22.70;65.50;;;;;;5069926;28;20497;-74
2022/08/24 04:18:19;;;;;;;8.00;7.20;;;22.70;65.50;;;;;;5053421;28;20497;-74
2022/08/24 04:20:46;;;;;;;8.00;7.28;;;22.60;65.40;;;;;;5053146;28;20048;-75
2022/08/24 04:23:14;;;;;;;8.02;7.32;;;22.70;65.50;;;;;;5052970;28;20132;-73
2022/08/24 04:25:41;;;;;;;9.10;8.02;;;22.70;65.40;;;;;;5053376;28;20215;-75
2022/08/24 04:28:08;;;;;;;8.00;7.30;;;22.70;65.40;;;;;;5053310;28;20063;-75
2022/08/24 04:30:35;;;;;;;8.48;7.72;;;22.70;65.40;;;;;;5064481;28;20074;-74
2022/08/24 04:33:03;;;;;;;7.57;6.85;;;22.60;65.40;;;;;;5072847;28;20128;-75
2022/08/24 04:35:30;;;;;;;8.18;7.47;;;22.70;65.40;;;;;;5073104;28;20058;-75
2022/08/24 04:37:57;;;;;;;7.43;6.75;;;22.60;65.40;;;;;;5072833;28;20078;-75
2022/08/24 04:40:24;;;;;;;7.57;6.82;;;22.60;65.40;;;;;;5074054;28;20052;-74
2022/08/24 04:42:51;;;;;;;7.13;6.53;;;22.60;65.40;;;;;;5072701;28;20060;-75
2022/08/24 04:45:17;;;;;;;7.13;6.43;;;22.70;65.40;;;;;;5061698;28;20409;-74
2022/08/24 04:47:44;;;;;;;7.38;6.68;;;22.60;65.40;;;;;;5052576;28;20132;-75
2022/08/24 04:50:12;;;;;;;6.55;5.95;;;22.60;65.40;;;;;;5052397;28;20060;-75
2022/08/24 04:52:39;;;;;;;7.47;6.78;;;22.60;65.30;;;;;;5052600;28;20063;-73
2022/08/24 04:55:06;;;;;;;6.95;5.82;;;22.80;65.40;;;;;;5052711;28;20569;-73
2022/08/24 04:57:33;;;;;;;6.82;6.22;;;22.70;67.10;;;;;;5052486;28;20136;-74
2022/08/24 05:00:00;;;;;;;7.30;6.65;;;22.60;65.40;;;;;;5069928;28;20055;-74
2022/08/24 05:02:27;;;;;;;7.32;6.68;;;22.60;65.30;;;;;;5072227;28;20052;-74
2022/08/24 05:04:54;;;;;;;6.50;5.85;;;22.60;65.30;;;;;;5072243;28;20079;-74
2022/08/24 05:07:22;;;;;;;6.15;5.50;;;22.70;65.40;;;;;;5072385;28;20091;-75
2022/08/24 05:09:49;;;;;;;7.03;6.45;;;22.60;65.30;;;;;;5072381;28;20143;-74
2022/08/24 05:12:16;;;;;;;5.53;5.03;;;22.60;65.30;;;;;;5073311;28;20515;-75
2022/08/24 05:14:42;;;;;;;5.88;5.38;;;22.60;65.30;;;;;;5054173;28;20063;-74
2022/08/24 05:17:09;;;;;;;6.10;5.60;;;22.60;65.30;;;;;;5052348;28;20057;-75
2022/08/24 05:19:36;;;;;;;5.75;5.25;;;22.60;65.30;;;;;;5052012;28;20136;-75
2022/08/24 05:22:03;;;;;;;5.72;5.32;;;22.60;65.30;;;;;;5053017;28;20109;-74
2022/08/24 05:24:31;;;;;;;6.20;5.70;;;22.60;65.20;;;;;;5052032;28;20059;-75
2022/08/24 05:26:59;;;;;;;4.97;4.45;;;22.60;65.20;;;;;;5050164;28;20048;-76
2022/08/24 05:29:32;;;;;;;5.07;4.68;;;22.60;65.20;;;;;;5051233;28;20476;-76
2022/08/24 05:31:59;;;;;;;6.63;4.47;;;22.60;65.20;;;;;;5051826;28;20045;-75
2022/08/24 05:34:25;;;;;;;4.90;4.50;;;22.60;65.20;;;;;;5052111;28;20056;-76
2022/08/24 05:36:52;;;;;;;5.03;4.25;;;22.60;65.20;;;;;;5051912;28;20061;-76
2022/08/24 05:39:19;;;;;;;4.40;4.00;;;22.50;65.10;;;;;;5052652;28;20056;-75
2022/08/24 05:41:47;;;;;;;4.20;3.88;;;22.60;65.10;;;;;;5054827;28;20057;-75
2022/08/24 05:44:15;;;;;;;3.88;3.58;;;22.70;65.20;;;;;;5031711;28;20140;-76
2022/08/24 05:46:42;;;;;;;4.00;3.70;;;22.60;65.10;;;;;;5032783;28;20136;-73
2022/08/24 05:49:08;;;;;;;3.60;3.30;;;22.60;65.00;;;;;;5031885;28;20065;-73
2022/08/24 05:51:35;;;;;;;3.72;3.42;;;22.60;65.00;;;;;;5032660;28;20045;-74
2022/08/24 05:54:03;;;;;;;3.63;3.33;;;22.60;65.00;;;;;;5031626;28;20133;-73
2022/08/24 05:56:30;;;;;;;4.40;4.00;;;22.60;65.00;;;;;;5054394;28;20135;-76
2022/08/24 05:58:58;;;;;;;3.83;3.53;;;22.60;65.00;;;;;;5070498;28;20131;-76
2022/08/24 06:01:25;;;;;;;3.80;3.50;;;22.60;65.00;;;;;;5071119;28;20549;-76
2022/08/24 06:03:53;;;;;;;3.67;3.38;;;22.60;64.90;;;;;;5071251;28;20044;-75
2022/08/24 06:06:20;;;;;;;3.50;3.20;;;22.60;64.90;;;;;;5071121;28;20095;-76
2022/08/24 06:08:48;;;;;;;3.88;3.58;;;22.60;64.90;;;;;;5070834;28;20048;-75
2022/08/24 06:11:20;;;;;;;2.70;2.50;;;22.60;64.90;;;;;;5058931;28;20060;-74
2022/08/24 06:13:47;;;;;;;3.25;2.97;;;22.60;64.80;;;;;;5050601;28;20049;-75
2022/08/24 06:16:15;;;;;;;3.20;2.90;;;22.60;64.90;;;;;;5051248;28;20049;-76
2022/08/24 06:18:41;;;;;;;2.78;2.50;;;22.60;64.80;;;;;;5051924;28;20055;-76
2022/08/24 06:21:09;;;;;;;2.88;2.67;;;22.60;64.70;;;;;;5050974;28;20139;-74
2022/08/24 06:23:36;;;;;;;3.38;3.08;;;22.60;64.70;;;;;;5050735;28;20052;-74
2022/08/24 06:28:47;;;;;;;3.33;3.03;;;22.60;64.70;;;;;;5050988;28;20052;-76
2022/08/24 06:31:16;;;;;;;2.90;2.70;;;22.70;64.70;;;;;;5050767;28;20135;-75
2022/08/24 06:33:42;;;;;;;2.40;2.20;;;22.70;64.70;;;;;;5051982;28;20052;-74
2022/08/24 06:36:09;;;;;;;2.53;2.33;;;22.70;64.70;;;;;;5050579;28;20132;-73
2022/08/24 06:38:36;;;;;;;3.78;3.47;;;22.80;64.70;;;;;;5050835;28;20136;-73
2022/08/24 06:41:03;;;;;;;3.30;3.00;;;22.70;64.60;;;;;;5064940;28;20058;-75
2022/08/24 06:43:29;;;;;;;3.53;3.22;;;22.30;64.20;;;;;;5052630;28;20061;-72
2022/08/24 06:45:56;;;;;;;2.80;2.60;;;22.70;64.60;;;;;;5050372;28;20063;-72
2022/08/24 06:48:25;;;;;;;2.72;2.42;;;22.80;64.60;;;;;;5051658;28;20057;-72
2022/08/24 06:50:52;;;;;;;3.30;3.00;;;22.80;64.60;;;;;;5052101;28;20132;-72
2022/08/24 06:53:18;;;;;;;3.58;2.90;;;22.80;64.50;;;;;;5052222;28;20044;-73
2022/08/24 06:55:46;;;;;;;2.88;2.63;;;22.90;64.50;;;;;;5051852;28;20470;-73
2022/08/24 06:58:13;;;;;;;3.75;2.50;;;23.00;64.50;;;;;;5050535;28;20059;-72
2022/08/24 07:00:39;;;;;;;3.80;3.40;;;23.10;64.50;;;;;;5051565;28;20053;-72
2022/08/24 07:03:06;;;;;;;3.90;3.60;;;23.10;64.40;;;;;;5051524;28;20053;-72
2022/08/24 07:05:35;;;;;;;3.17;2.90;;;23.20;64.40;;;;;;5050555;28;20135;-74
2022/08/24 07:08:01;;;;;;;3.13;2.83;;;23.40;64.40;;;;;;5054423;28;20132;-74
2022/08/24 07:10:28;;;;;;;3.40;3.00;;;23.30;64.20;;;;;;5070615;28;20060;-72
2022/08/24 07:12:55;;;;;;;3.40;3.10;;;23.40;64.20;;;;;;5070647;28;20512;-72
2022/08/24 07:15:22;;;;;;;2.75;2.55;;;23.40;64.00;;;;;;5070355;28;20050;-73
2022/08/24 07:17:49;;;;;;;3.10;2.80;;;23.50;63.90;;;;;;5070690;28;20052;-72
2022/08/24 07:20:16;;;;;;;3.22;2.70;;;23.50;63.80;;;;;;5070163;28;20074;-72
2022/08/24 07:22:44;;;;;;;3.70;2.40;;;23.60;63.70;;;;;;5060265;28;20128;-72
2022/08/24 07:25:11;;;;;;;2.42;2.15;;;23.60;63.60;;;;;;5050543;28;20155;-72
2022/08/24 07:27:38;;;;;;;2.15;1.95;;;23.70;63.60;;;;;;5050410;28;20136;-74
2022/08/24 07:30:07;;;;;;;2.38;2.17;;;23.60;63.40;;;;;;5050215;28;20064;-73
2022/08/24 07:32:34;;;;;;;2.53;2.33;;;23.70;63.40;;;;;;5050277;28;20220;-72
2022/08/24 07:35:00;;;;;;;3.60;3.30;;;23.70;63.40;;;;;;5051357;28;20141;-72
2022/08/24 07:37:27;;;;;;;2.78;2.40;;;23.70;63.40;;;;;;5051803;28;20425;-72
2022/08/24 07:39:55;;;;;;;3.50;2.78;;;23.70;63.30;;;;;;5051266;28;20049;-72
2022/08/24 07:42:23;;;;;;;4.75;4.20;;;23.70;63.20;;;;;;5050267;28;20057;-75
2022/08/24 07:44:50;;;;;;;6.88;5.68;;;23.60;63.20;;;;;;5051096;28;20132;-72
2022/08/24 07:47:17;;;;;;;5.80;5.30;;;23.60;63.30;;;;;;5051622;28;20057;-71
2022/08/24 07:49:44;;;;;;;6.00;5.40;;;23.70;63.40;;;;;;5050327;28;20505;-72
2022/08/24 07:52:11;;;;;;;7.57;6.30;;;23.80;63.50;;;;;;5049896;28;20060;-75
2022/08/24 07:54:37;;;;;;;6.18;5.53;;;23.70;63.60;;;;;;5050020;28;20470;-73
2022/08/24 07:57:06;;;;;;;6.10;5.50;;;23.60;63.70;;;;;;5051329;28;20053;-72
2022/08/24 07:59:33;;;;;;;5.88;5.05;;;23.60;63.80;;;;;;5050260;28;20061;-73
2022/08/24 08:02:00;;;;;;;6.82;4.75;;;23.60;63.80;;;;;;5051117;28;20140;-72
2022/08/24 08:04:26;;;;;;;5.68;5.18;;;23.60;63.80;;;;;;5050131;28;20136;-75
2022/08/24 08:06:53;;;;;;;6.28;5.65;;;23.60;63.90;;;;;;5070279;28;20048;-74
2022/08/24 08:09:20;;;;;;;16.55;11.18;;;23.60;64.00;;;;;;5073492;28;20110;-74
2022/08/24 08:11:47;;;;;;;8.43;6.82;;;23.50;64.70;;;;;;5074562;28;20128;-75
2022/08/24 08:14:15;;;;;;;7.55;6.80;;;23.60;64.70;;;;;;5073414;28;20107;-74
2022/08/24 08:16:42;;;;;;;8.30;7.20;;;23.60;64.60;;;;;;5073675;28;20074;-74
2022/08/24 08:19:09;;;;;;;9.70;7.00;;;23.60;64.90;;;;;;5071086;28;20041;-75
2022/08/24 08:24:25;;;;;;;16.23;6.43;;;23.60;65.20;;;;;;5053101;28;20517;-76
2022/08/24 08:26:52;;;;;;;11.93;7.00;;;23.70;65.30;;;;;;5053559;28;20183;-74
2022/08/24 08:29:23;;;;;;;14.55;6.50;;;23.80;65.50;;;;;;5055547;28;20448;-74
2022/08/24 08:31:50;;;;;;;9.35;5.95;;;23.90;65.60;;;;;;5054326;28;20140;-73
2022/08/24 08:34:17;;;;;;;9.10;5.90;;;23.90;65.50;;;;;;5053275;28;20063;-73
2022/08/24 08:36:44;;;;;;;10.90;5.50;;;23.90;65.20;;;;;;5053014;28;20049;-73
2022/08/24 08:39:12;;;;;;;14.98;7.32;;;23.90;65.00;;;;;;5052989;28;20141;-74
2022/08/24 08:42:05;;;;;;;7.60;6.15;;;23.90;65.20;;;;;;5052705;28;20049;-74
2022/08/24 08:44:44;;;;;;;9.13;5.00;;;24.00;65.10;;;;;;4993444;28;20173;-73
2022/08/24 08:47:17;;;;;;;9.98;4.55;;;24.10;64.80;;;;;;5033149;28;20108;-73
2022/08/24 08:50:04;;;;;;;9.00;4.60;;;24.10;64.60;;;;;;5033157;28;20053;-73
2022/08/24 08:52:51;;;;;;;12.23;4.90;;;24.20;64.50;;;;;;5032618;28;20049;-74
2022/08/24 08:55:26;;;;;;;7.45;4.43;;;24.10;64.70;;;;;;5023007;28;20136;-74
2022/08/24 08:57:59;;;;;;;6.55;4.20;;;24.20;64.80;;;;;;5056937;28;20045;-76
2022/08/24 09:00:32;;;;;;;11.57;4.07;;;24.20;64.70;;;;;;5072739;28;20060;-75
2022/08/24 09:03:17;;;;;;;11.65;4.70;;;24.30;64.60;;;;;;5069408;28;20053;-72
2022/08/24 09:06:10;;;;;;;;;;;24.30;64.20;;;;;;5051154;28;20391;-72
2022/08/24 09:08:53;;;;;;;8.15;3.90;;;24.30;64.30;;;;;;5017267;28;19964;-73
2022/08/24 09:11:23;;;;;;;6.45;3.20;;;24.30;64.30;;;;;;5061246;28;20456;-74
2022/08/24 09:14:12;;;;;;;7.97;3.60;;;24.30;64.10;;;;;;5058292;28;20049;-75
2022/08/24 09:16:49;;;;;;;5.97;3.53;;;24.30;64.00;;;;;;5049366;28;20052;-74
2022/08/24 09:19:30;;;;;;;8.57;3.70;;;24.30;64.00;;;;;;5051393;28;20051;-75
2022/08/24 09:22:04;;;;;;;9.05;3.40;;;24.30;64.00;;;;;;5050384;28;20053;-74
2022/08/24 09:24:53;;;;;;;9.38;3.00;;;24.30;64.20;;;;;;5050234;28;20455;-76
2022/08/24 09:27:22;;;;;;;6.57;3.25;;;24.30;64.20;;;;;;5049099;28;20063;-75
2022/08/24 09:29:59;;;;;;;6.57;3.20;;;24.40;64.30;;;;;;5048294;28;20132;-75
2022/08/24 09:32:38;;;;;;;5.35;2.80;;;24.40;64.20;;;;;;5052209;28;20076;-75
2022/08/24 09:35:05;;;;;;;9.35;3.63;;;24.40;64.20;;;;;;5052073;28;20049;-73
2022/08/24 09:37:35;;;;;;;12.65;3.53;;;24.40;64.10;;;;;;5051801;28;20397;-73
2022/08/24 09:40:11;;;;;;;4.53;3.00;;;24.40;64.00;;;;;;5051824;28;20059;-73
2022/08/24 09:43:27;;;;;;;8.27;3.53;;;24.40;64.10;;;;;;5051813;28;20063;-73
2022/08/24 09:46:18;;;;;;;3.25;2.70;;;24.40;64.00;;;;;;5051390;28;20498;-74
2022/08/24 09:49:02;;;;;;;5.35;3.00;;;24.40;63.90;;;;;;5042840;28;20384;-73
2022/08/24 09:51:56;;;;;;;3.40;2.70;;;24.40;63.80;;;;;;5051518;28;20053;-74
2022/08/24 09:54:51;;;;;;;6.03;3.08;;;24.40;63.70;;;;;;5046157;28;20056;-73
2022/08/24 09:57:24;;;;;;;4.05;2.88;;;24.50;63.70;;;;;;5037310;28;20136;-73
2022/08/24 09:59:58;;;;;;;3.92;2.42;;;24.50;63.60;;;;;;5050477;28;20132;-74
2022/08/24 10:02:36;;;;;;;4.82;2.90;;;24.50;63.50;;;;;;5031506;28;20054;-74
2022/08/24 10:05:08;;;;;;;4.43;2.78;;;24.50;63.30;;;;;;5031072;28;20132;-74
2022/08/24 10:07:39;;;;;;;4.18;2.85;;;24.50;63.40;;;;;;5031572;28;20061;-74
2022/08/24 10:10:26;;;;;;;4.85;2.83;;;24.60;63.40;;;;;;5031362;28;20053;-74
2022/08/24 10:12:58;;;;;;;4.28;2.78;;;24.60;63.30;;;;;;5029144;28;20424;-75
2022/08/24 10:15:28;;;;;;;4.53;3.05;;;24.60;63.20;;;;;;5050992;28;20060;-73
2022/08/24 10:18:26;;;;;;;5.13;2.63;;;24.70;63.30;;;;;;5051175;28;20091;-73
2022/08/24 10:21:05;;;;;;;6.18;2.70;;;24.60;63.20;;;;;;5050558;28;20083;-75
2022/08/24 10:23:53;;;;;;;3.30;2.80;;;24.60;63.30;;;;;;5050859;28;20055;-74
2022/08/24 10:26:24;;;;;;;4.97;2.50;;;24.70;63.30;;;;;;5051103;28;20131;-73
2022/08/24 10:29:17;;;;;;;4.55;2.50;;;24.60;63.20;;;;;;5050809;28;20495;-73
2022/08/24 10:31:50;;;;;;;4.18;2.80;;;24.70;63.10;;;;;;5046932;28;20051;-72
2022/08/24 10:34:26;;;;;;;3.42;2.75;;;24.70;63.10;;;;;;5050400;28;20045;-74
2022/08/24 10:37:07;;;;;;;3.15;2.50;;;24.70;63.10;;;;;;5050815;28;20057;-73
2022/08/24 10:39:48;;;;;;;4.57;2.80;;;24.70;63.00;;;;;;5030903;28;20149;-74
2022/08/24 10:45:17;;;;;;;3.20;2.78;;;24.80;63.00;;;;;;5048485;28;20053;-73
2022/08/24 10:47:55;;;;;;;3.15;2.55;;;24.70;62.90;;;;;;5050813;28;20049;-73
2022/08/24 10:50:32;;;;;;;3.00;2.60;;;24.70;63.00;;;;;;5047202;28;20056;-73
2022/08/24 10:53:20;;;;;;;4.35;2.75;;;24.70;62.90;;;;;;5051424;28;20124;-72
2022/08/24 10:55:47;;;;;;;3.33;2.67;;;24.80;62.90;;;;;;5047482;28;20056;-73
2022/08/24 10:58:28;;;;;;;2.80;2.58;;;24.80;63.00;;;;;;5050220;28;20047;-74
2022/08/24 11:00:55;;;;;;;4.70;2.50;;;24.90;63.00;;;;;;5049636;28;20049;-74
2022/08/24 11:03:25;;;;;;;3.25;2.55;;;24.90;62.90;;;;;;5046376;28;20385;-74
2022/08/24 11:05:53;;;;;;;4.15;2.70;;;24.90;62.80;;;;;;5050805;28;20508;-74
2022/08/24 11:08:22;;;;;;;4.40;2.80;;;24.90;62.80;;;;;;5050761;28;20182;-73
2022/08/24 11:11:05;;;;;;;6.07;2.42;;;24.90;62.80;;;;;;5049302;28;20143;-75
2022/08/24 11:13:32;;;;;;;3.00;2.35;;;24.90;62.80;;;;;;5048807;28;20056;-74
2022/08/24 11:16:00;;;;;;;3.50;2.50;;;24.90;62.70;;;;;;5044405;28;20045;-74
2022/08/24 11:18:29;;;;;;;2.78;2.50;;;25.00;62.70;;;;;;5042840;28;20061;-75
2022/08/24 11:20:56;;;;;;;4.03;2.35;;;24.90;62.60;;;;;;5050886;28;20509;-74
2022/08/24 11:23:25;;;;;;;2.58;2.28;;;25.00;62.60;;;;;;5051707;28;20085;-75
2022/08/24 11:25:55;;;;;;;2.50;2.28;;;24.90;62.60;;;;;;5049752;28;20135;-75
2022/08/24 11:28:32;;;;;;;3.70;2.40;;;25.00;62.60;;;;;;5051652;28;20056;-74
2022/08/24 11:30:58;;;;;;;2.72;2.20;;;25.00;62.60;;;;;;5051209;28;20049;-74
2022/08/24 11:33:29;;;;;;;3.80;2.38;;;24.90;62.50;;;;;;5050494;28;20158;-74
2022/08/24 11:35:56;;;;;;;2.83;2.30;;;25.00;62.50;;;;;;5050334;28;20136;-73
2022/08/24 11:38:26;;;;;;;3.22;2.40;;;25.00;62.50;;;;;;5050070;28;20102;-75
2022/08/24 11:40:55;;;;;;;2.58;2.38;;;25.00;62.50;;;;;;5052239;28;20140;-74
2022/08/24 11:43:28;;;;;;;3.17;2.50;;;24.80;62.20;;;;;;5054251;28;20060;-75
2022/08/24 11:46:06;;;;;;;3.13;2.08;;;25.00;62.60;;;;;;5054058;28;20045;-74
2022/08/24 11:48:38;;;;;;;3.95;2.33;;;25.00;62.50;;;;;;5053785;28;20053;-75
2022/08/24 11:51:07;;;;;;;3.28;2.40;;;25.00;62.50;;;;;;5053904;28;20139;-74
2022/08/24 11:53:39;;;;;;;3.08;2.40;;;25.00;62.50;;;;;;5054659;28;20151;-74
2022/08/24 11:56:10;;;;;;;5.32;2.67;;;25.00;62.50;;;;;;5053697;28;20136;-75
2022/08/24 11:58:45;;;;;;;2.45;2.25;;;25.10;62.60;;;;;;5054839;28;20136;-75
2022/08/24 12:01:15;;;;;;;3.25;2.53;;;25.00;62.50;;;;;;5054818;28;20137;-74
2022/08/24 12:03:51;;;;;;;3.72;2.33;;;25.10;62.60;;;;;;5054552;28;20508;-74
2022/08/24 12:06:25;;;;;;;8.85;6.25;;;25.00;62.50;;;;;;5053393;28;20052;-74
2022/08/24 12:08:56;;;;;;;16.48;9.80;;;25.10;63.10;;;;;;5054624;28;20053;-74
2022/08/24 12:11:31;;;;;;;21.60;12.15;;;25.10;62.50;;;;;;5053616;28;20140;-74
2022/08/24 12:14:03;;;;;;;18.45;11.15;;;25.10;62.60;;;;;;5053204;28;20132;-74
2022/08/24 12:16:32;;;;;;;22.13;12.90;;;25.10;62.50;;;;;;5053763;28;20118;-74
2022/08/24 12:19:03;;;;;;;23.52;13.75;;;25.10;62.60;;;;;;5053610;28;20102;-74
2022/08/24 12:21:31;;;;;;;20.10;12.98;;;25.10;62.50;;;;;;5052960;28;20045;-74
2022/08/24 12:24:02;;;;;;;26.38;15.43;;;25.20;62.50;;;;;;5053028;28;20059;-74
2022/08/24 12:26:30;;;;;;;20.33;13.20;;;25.20;62.50;;;;;;5053368;28;20087;-75
2022/08/24 12:29:01;;;;;;;22.40;13.80;;;25.10;62.50;;;;;;5053578;28;20049;-74
2022/08/24 12:31:36;;;;;;;21.13;13.82;;;25.20;62.50;;;;;;5053084;28;20065;-73
2022/08/24 12:34:05;;;;;;;23.02;14.30;;;25.20;62.50;;;;;;5053385;28;20730;-73
2022/08/24 12:36:33;;;;;;;21.20;14.35;;;25.20;62.50;;;;;;5052687;28;20120;-74
2022/08/24 12:39:07;;;;;;;19.90;13.68;;;25.20;62.50;;;;;;5052540;28;20059;-73
2022/08/24 12:41:34;;;;;;;21.73;14.00;;;25.20;62.50;;;;;;5053781;28;20053;-74
2022/08/24 12:44:03;;;;;;;19.85;13.50;;;25.20;62.50;;;;;;5051013;28;20060;-74
2022/08/24 12:46:30;;;;;;;20.58;13.48;;;25.20;62.50;;;;;;5052735;28;20119;-74
2022/08/24 12:48:59;;;;;;;20.10;12.88;;;25.20;62.50;;;;;;5053088;28;20052;-75
2022/08/24 12:51:29;;;;;;;21.15;13.13;;;25.20;62.50;;;;;;5052209;28;20462;-74
2022/08/24 12:54:10;;;;;;;18.33;11.95;;;25.30;62.60;;;;;;5052435;28;20057;-73
2022/08/24 12:56:58;;;;;;;17.52;11.70;;;25.20;62.50;;;;;;5052264;28;20072;-75
2022/08/24 12:59:26;;;;;;;19.40;11.93;;;25.20;62.40;;;;;;5049860;28;20045;-74
2022/08/24 13:02:02;;;;;;;19.80;11.50;;;25.20;62.60;;;;;;5051578;28;20481;-74
2022/08/24 13:04:35;;;;;;;13.93;10.60;;;25.20;62.50;;;;;;5032254;28;20045;-74
2022/08/24 13:07:06;;;;;;;17.30;11.15;;;25.20;62.50;;;;;;5050355;28;20110;-73